createdAt,value
2024-02-08T00:01:23.640Z,84.83
2024-02-08T00:04:52.582Z,84.54
2024-02-08T00:08:21.311Z,84.47
2024-02-08T00:11:51.108Z,84.28
2024-02-08T00:15:19.738Z,84.00
2024-02-08T00:18:48.420Z,83.55
2024-02-08T00:22:17.361Z,83.53
2024-02-08T00:25:46.107Z,83.50
2024-02-08T00:29:15.096Z,83.64
2024-02-08T00:32:43.874Z,83.73
2024-02-08T00:36:12.774Z,83.51
2024-02-08T00:39:41.649Z,83.36
2024-02-08T00:43:12.462Z,83.28
2024-02-08T00:46:41.001Z,83.09
2024-02-08T00:50:09.640Z,83.20
2024-02-08T00:53:38.499Z,83.37
2024-02-08T00:57:07.742Z,83.23
2024-02-08T01:00:36.631Z,83.40
2024-02-08T01:04:10.964Z,83.50
2024-02-08T01:07:40.832Z,83.54
2024-02-08T01:11:09.792Z,83.55
2024-02-08T01:14:41.002Z,83.58
2024-02-08T01:18:12.679Z,83.48
2024-02-08T01:21:42.249Z,83.61
2024-02-08T01:25:11.008Z,83.66
2024-02-08T01:28:39.736Z,83.67
2024-02-08T01:32:08.720Z,83.70
2024-02-08T01:35:37.605Z,83.71
2024-02-08T01:39:08.598Z,83.71
2024-02-08T01:42:37.475Z,83.76
2024-02-08T01:46:11.803Z,83.84
2024-02-08T01:49:20.189Z,83.90
2024-02-08T01:52:48.825Z,83.95
2024-02-08T01:56:17.408Z,84.00
2024-02-08T01:59:46.257Z,84.00
2024-02-08T02:03:14.887Z,84.06
2024-02-08T02:06:37.516Z,84.08
2024-02-08T02:10:06.309Z,84.12
2024-02-08T02:13:35.417Z,84.15
2024-02-08T02:17:03.475Z,84.19
2024-02-08T02:20:32.244Z,84.23
2024-02-08T02:24:00.888Z,84.25
2024-02-08T02:27:29.436Z,84.31
2024-02-08T02:30:57.955Z,84.33
2024-02-08T02:34:16.704Z,84.40
2024-02-08T02:37:38.477Z,84.50
2024-02-08T02:41:12.381Z,84.55
2024-02-08T02:44:41.106Z,84.55
2024-02-08T02:48:02.448Z,84.56
2024-02-08T02:51:31.442Z,84.54
2024-02-08T02:55:00.059Z,84.51
2024-02-08T02:58:28.652Z,84.53
2024-02-08T03:02:00.416Z,84.52
2024-02-08T03:05:29.169Z,84.52
2024-02-08T03:08:57.833Z,84.51
2024-02-08T03:12:26.657Z,84.54
2024-02-08T03:15:58.524Z,84.50
2024-02-08T03:19:27.186Z,84.49
2024-02-08T03:22:55.971Z,84.45
2024-02-08T03:26:25.064Z,84.45
2024-02-08T03:29:53.596Z,84.46
2024-02-08T03:33:22.265Z,84.46
2024-02-08T03:36:42.007Z,84.46
2024-02-08T03:40:11.022Z,84.39
2024-02-08T03:43:34.479Z,84.48
2024-02-08T03:47:03.461Z,84.37
2024-02-08T03:50:33.827Z,84.34
2024-02-08T03:54:02.680Z,84.13
2024-02-08T03:57:31.268Z,84.08
2024-02-08T04:01:00.519Z,84.09
2024-02-08T04:04:35.265Z,84.00
2024-02-08T04:08:19.344Z,84.05
2024-02-08T04:11:46.869Z,84.06
2024-02-08T04:15:16.970Z,84.08
2024-02-08T04:18:34.475Z,84.09
2024-02-08T04:22:01.437Z,84.01
2024-02-08T04:25:27.081Z,83.92
2024-02-08T04:28:54.450Z,83.98
2024-02-08T04:32:24.489Z,84.00
2024-02-08T04:35:51.760Z,83.96
2024-02-08T04:39:18.847Z,83.99
2024-02-08T04:42:46.025Z,84.05
2024-02-08T04:46:13.067Z,84.12
2024-02-08T04:49:40.242Z,84.20
2024-02-08T04:53:07.756Z,84.22
2024-02-08T04:56:36.801Z,84.27
2024-02-08T05:00:05.612Z,84.34
2024-02-08T05:03:34.528Z,84.41
2024-02-08T05:07:03.437Z,84.44
2024-02-08T05:10:32.422Z,84.51
2024-02-08T05:14:01.151Z,84.52
2024-02-08T05:17:32.826Z,84.57
2024-02-08T05:21:01.386Z,84.64
2024-02-08T05:24:29.967Z,84.68
2024-02-08T05:28:01.147Z,84.72
2024-02-08T05:31:29.771Z,84.75
2024-02-08T05:34:58.673Z,84.74
2024-02-08T05:38:27.536Z,84.66
2024-02-08T05:41:56.144Z,84.64
2024-02-08T05:45:40.297Z,84.67
2024-02-08T05:49:16.511Z,84.62
2024-02-08T05:52:45.859Z,84.60
2024-02-08T05:56:14.511Z,84.59
2024-02-08T05:59:43.314Z,84.57
2024-02-08T06:03:12.256Z,84.58
2024-02-08T06:06:56.185Z,84.57
2024-02-08T06:24:27.655Z,84.65
2024-02-08T06:28:11.538Z,84.70
2024-02-08T06:31:41.509Z,84.76
2024-02-08T06:35:11.056Z,84.82
2024-02-08T06:38:45.073Z,84.92
2024-02-08T06:42:30.473Z,84.96
2024-02-08T06:45:52.869Z,84.99
2024-02-08T06:49:22.829Z,85.03
2024-02-08T06:52:49.941Z,85.09
2024-02-08T06:56:17.084Z,85.09
2024-02-08T06:59:36.729Z,85.10
2024-02-08T07:03:04.364Z,85.14
2024-02-08T07:06:24.424Z,85.14
2024-02-08T07:09:51.583Z,85.15
2024-02-08T07:13:19.467Z,85.18
2024-02-08T07:16:46.328Z,85.22
2024-02-08T07:20:13.783Z,85.22
2024-02-08T07:23:24.254Z,85.19
2024-02-08T07:26:53.951Z,85.20
2024-02-08T07:30:20.869Z,85.21
2024-02-08T07:33:47.958Z,85.20
2024-02-08T07:37:15.601Z,85.17
2024-02-08T07:40:50.117Z,85.14
2024-02-08T07:44:19.015Z,85.10
2024-02-08T07:47:47.614Z,85.10
2024-02-08T07:51:18.927Z,85.06
2024-02-08T07:54:47.589Z,85.05
2024-02-08T07:58:19.509Z,84.97
2024-02-08T08:01:48.517Z,84.81
2024-02-08T08:05:13.918Z,84.75
2024-02-08T08:08:55.077Z,84.73
2024-02-08T08:12:25.438Z,84.64
2024-02-08T08:15:54.302Z,84.61
2024-02-08T08:19:32.267Z,84.61
2024-02-08T08:23:01.027Z,84.56
2024-02-08T08:26:22.691Z,84.49
2024-02-08T08:29:40.047Z,84.39
2024-02-08T08:33:14.440Z,84.28
2024-02-08T08:36:23.095Z,83.95
2024-02-08T08:39:50.265Z,83.85
2024-02-08T08:43:18.910Z,83.73
2024-02-08T08:46:47.837Z,83.68
2024-02-08T08:50:16.768Z,83.63
2024-02-08T08:53:46.044Z,83.43
2024-02-08T08:57:15.183Z,83.29
2024-02-08T09:00:44.008Z,83.09
2024-02-08T09:04:18.763Z,82.99
2024-02-08T09:07:47.780Z,82.99
2024-02-08T09:11:16.495Z,82.96
2024-02-08T09:14:45.097Z,82.82
2024-02-08T09:18:10.382Z,82.68
2024-02-08T09:21:40.520Z,82.63
2024-02-08T09:25:22.249Z,82.55
2024-02-08T09:28:59.917Z,82.26
2024-02-08T09:32:40.849Z,82.05
2024-02-08T09:36:09.542Z,81.83
2024-02-08T09:39:38.080Z,81.00
2024-02-08T09:43:07.071Z,81.20
2024-02-08T09:46:38.763Z,79.72
2024-02-08T09:50:07.683Z,80.65
2024-02-08T09:53:38.282Z,80.70
2024-02-08T09:56:59.948Z,80.29
2024-02-08T10:00:09.132Z,79.82
2024-02-08T10:03:38.042Z,79.92
2024-02-08T10:07:07.778Z,79.83
2024-02-08T10:10:39.255Z,79.45
2024-02-08T10:14:20.502Z,79.48
2024-02-08T10:18:04.335Z,79.71
2024-02-08T10:21:33.124Z,79.43
2024-02-08T10:25:10.914Z,79.20
2024-02-08T10:28:39.880Z,78.79
2024-02-08T10:32:08.779Z,78.77
2024-02-08T10:35:46.840Z,78.58
2024-02-08T10:39:21.716Z,77.36
2024-02-08T10:42:50.518Z,77.72
2024-02-08T10:46:23.717Z,77.87
2024-02-08T10:49:52.463Z,77.58
2024-02-08T10:53:22.418Z,78.02
2024-02-08T10:56:53.752Z,77.87
2024-02-08T11:00:22.350Z,77.52
2024-02-08T11:03:57.170Z,77.24
2024-02-08T11:07:28.822Z,77.41
2024-02-08T11:10:57.617Z,77.53
2024-02-08T11:14:26.202Z,77.27
2024-02-08T11:17:55.061Z,77.09
2024-02-08T11:21:30.014Z,76.59
2024-02-08T11:25:01.718Z,76.22
2024-02-08T11:28:33.304Z,76.07
2024-02-08T11:32:01.974Z,76.06
2024-02-08T11:35:30.792Z,75.42
2024-02-08T11:39:20.870Z,75.99
2024-02-08T11:42:49.930Z,75.90
2024-02-08T11:46:18.558Z,75.87
2024-02-08T11:49:53.352Z,75.58
2024-02-08T11:53:22.380Z,75.53
2024-02-08T11:56:51.151Z,74.99
2024-02-08T12:00:20.326Z,74.74
2024-02-08T12:03:49.593Z,75.06
2024-02-08T12:07:18.655Z,74.86
2024-02-08T12:10:47.814Z,74.71
2024-02-08T12:14:24.572Z,74.81
2024-02-08T12:17:56.397Z,74.87
2024-02-08T12:21:25.227Z,74.95
2024-02-08T12:24:53.138Z,74.42
2024-02-08T12:28:01.480Z,74.13
2024-02-08T12:31:30.125Z,74.08
2024-02-08T12:34:59.660Z,74.09
2024-02-08T12:38:31.967Z,74.23
2024-02-08T12:42:00.792Z,73.91
2024-02-08T12:45:32.285Z,73.51
2024-02-08T12:49:01.438Z,74.13
2024-02-08T12:52:30.323Z,74.34
2024-02-08T12:56:01.525Z,74.69
2024-02-08T12:59:42.072Z,74.25
2024-02-08T13:03:10.680Z,73.89
2024-02-08T13:06:43.306Z,73.59
2024-02-08T13:10:11.996Z,73.64
2024-02-08T13:13:41.398Z,73.74
2024-02-08T13:17:08.568Z,73.63
2024-02-08T13:20:30.540Z,73.86
2024-02-08T13:23:59.326Z,73.75
2024-02-08T13:27:27.895Z,72.76
2024-02-08T13:31:09.448Z,71.93
2024-02-08T13:34:38.770Z,71.73
2024-02-08T13:38:06.835Z,71.90
2024-02-08T13:41:35.866Z,72.05
2024-02-08T13:45:04.707Z,72.41
2024-02-08T13:48:34.025Z,72.90
2024-02-08T13:52:02.886Z,72.95
2024-02-08T13:55:46.601Z,72.98
2024-02-08T13:59:22.474Z,73.18
2024-02-08T14:02:51.293Z,73.24
2024-02-08T14:06:21.946Z,73.41
2024-02-08T14:09:52.769Z,73.47
2024-02-08T14:13:21.428Z,73.58
2024-02-08T14:16:50.555Z,73.62
2024-02-08T14:20:19.622Z,73.57
2024-02-08T14:23:48.343Z,73.74
2024-02-08T14:27:16.864Z,73.93
2024-02-08T14:30:45.846Z,74.13
2024-02-08T14:34:14.767Z,74.25
2024-02-08T14:37:43.672Z,74.29
2024-02-08T14:41:15.480Z,74.49
2024-02-08T14:44:44.094Z,74.52
2024-02-08T14:48:13.100Z,74.49
2024-02-08T14:51:44.704Z,74.79
2024-02-08T14:55:13.437Z,74.87
2024-02-08T14:58:49.553Z,75.00
2024-02-08T15:02:26.827Z,75.25
2024-02-08T15:06:02.072Z,75.28
2024-02-08T15:09:29.549Z,75.22
2024-02-08T15:13:14.589Z,75.27
2024-02-08T15:16:43.470Z,75.37
2024-02-08T15:20:12.318Z,75.46
2024-02-08T15:23:53.129Z,75.62
2024-02-08T15:27:27.603Z,75.73
2024-02-08T15:30:59.865Z,75.87
2024-02-08T15:34:38.122Z,75.90
2024-02-08T15:41:38.901Z,76.11
2024-02-08T15:45:07.716Z,76.29
2024-02-08T15:48:46.642Z,76.46
2024-02-08T15:52:16.031Z,76.64
2024-02-08T15:55:40.227Z,76.85
2024-02-08T15:59:09.081Z,77.00
2024-02-08T16:02:38.086Z,77.12
2024-02-08T16:06:06.862Z,77.20
2024-02-08T16:09:47.320Z,77.41
2024-02-08T16:13:16.096Z,77.58
2024-02-08T16:16:45.203Z,77.81
2024-02-08T16:20:13.802Z,77.96
2024-02-08T16:23:42.673Z,78.06
2024-02-08T16:27:11.257Z,78.19
2024-02-08T16:30:52.312Z,78.32
2024-02-08T16:34:21.144Z,78.43
2024-02-08T16:38:03.142Z,78.56
2024-02-08T16:41:31.787Z,78.64
2024-02-08T16:45:00.616Z,78.75
2024-02-08T16:48:35.771Z,78.83
2024-02-08T16:52:07.588Z,78.93
2024-02-08T16:55:37.194Z,79.08
2024-02-08T16:59:05.557Z,79.29
2024-02-08T17:02:34.329Z,79.40
2024-02-08T17:06:12.158Z,79.47
2024-02-08T17:09:41.341Z,79.62
2024-02-08T17:13:19.043Z,79.67
2024-02-08T17:16:47.781Z,79.72
2024-02-08T17:20:19.697Z,79.93
2024-02-08T17:23:51.234Z,79.96
2024-02-08T17:27:25.930Z,79.97
2024-02-08T17:31:13.100Z,80.05
2024-02-08T17:34:45.056Z,80.13
2024-02-08T17:38:13.781Z,80.20
2024-02-08T17:41:42.613Z,80.23
2024-02-08T17:45:11.159Z,80.32
2024-02-08T17:48:40.830Z,80.34
2024-02-08T17:52:12.666Z,80.35
2024-02-08T17:55:41.237Z,80.35
2024-02-08T17:59:10.153Z,80.36
2024-02-08T18:02:40.098Z,80.45
2024-02-08T18:06:09.069Z,80.50
2024-02-08T18:09:37.066Z,80.50
2024-02-08T18:13:06.205Z,80.54
2024-02-08T18:16:35.113Z,80.54
2024-02-08T18:20:05.936Z,80.56
2024-02-08T18:23:35.085Z,80.54
2024-02-08T18:27:04.097Z,80.58
2024-02-08T18:30:33.842Z,80.57
2024-02-08T18:34:02.809Z,80.54
2024-02-08T18:37:32.494Z,80.53
2024-02-08T18:41:01.092Z,80.47
2024-02-08T18:44:32.098Z,80.54
2024-02-08T18:48:00.790Z,80.62
2024-02-08T18:51:29.639Z,80.65
2024-02-08T18:54:58.270Z,80.69
2024-02-08T18:58:26.949Z,80.69
2024-02-08T19:02:04.775Z,80.70
2024-02-08T19:05:37.630Z,80.63
2024-02-08T19:09:06.996Z,80.59
2024-02-08T19:12:35.928Z,80.67
2024-02-08T19:16:04.845Z,80.79
2024-02-08T19:19:33.101Z,80.78
2024-02-08T19:23:01.876Z,80.71
2024-02-08T19:26:30.658Z,80.71
2024-02-08T19:29:59.369Z,80.74
2024-02-08T19:33:28.320Z,80.77
2024-02-08T19:36:57.050Z,80.76
2024-02-08T19:40:25.946Z,80.70
2024-02-08T19:43:57.006Z,80.73
2024-02-08T19:47:34.805Z,80.83
2024-02-08T19:51:03.647Z,80.90
2024-02-08T19:54:25.594Z,80.93
2024-02-08T19:57:58.016Z,80.99
2024-02-08T20:01:32.991Z,81.00
2024-02-08T20:05:03.307Z,81.14
2024-02-08T20:08:32.442Z,81.10
2024-02-08T20:12:01.225Z,81.17
2024-02-08T20:15:38.927Z,81.17
2024-02-08T20:19:08.381Z,81.17
2024-02-08T20:22:40.278Z,81.16
2024-02-08T20:26:12.180Z,81.16
2024-02-08T20:29:41.937Z,81.28
2024-02-08T20:33:10.953Z,81.30
2024-02-08T20:36:39.719Z,81.29
2024-02-08T20:40:08.497Z,81.35
2024-02-08T20:43:36.484Z,81.43
2024-02-08T20:47:12.227Z,81.42
2024-02-08T20:50:43.877Z,81.46
2024-02-08T20:54:13.581Z,81.50
2024-02-08T20:57:43.073Z,81.51
2024-02-08T21:01:12.338Z,81.38
2024-02-08T21:04:41.047Z,81.18
2024-02-08T21:08:09.940Z,81.24
2024-02-08T21:11:41.642Z,81.36
2024-02-08T21:15:09.317Z,81.36
2024-02-08T21:18:41.006Z,81.48
2024-02-08T21:22:09.310Z,81.55
2024-02-08T21:25:38.671Z,81.66
2024-02-08T21:29:10.225Z,81.67
2024-02-08T21:32:38.875Z,81.62
2024-02-08T21:36:08.030Z,81.71
2024-02-08T21:39:36.757Z,81.75
2024-02-08T21:43:05.710Z,81.78
2024-02-08T21:46:34.649Z,81.79
2024-02-08T21:50:03.600Z,81.77
2024-02-08T21:53:32.346Z,81.82
2024-02-08T21:57:01.002Z,81.92
2024-02-08T22:00:31.197Z,81.91
2024-02-08T22:04:01.389Z,81.93
2024-02-08T22:07:30.322Z,81.86
2024-02-08T22:11:00.498Z,81.85
2024-02-08T22:14:29.423Z,81.82
2024-02-08T22:17:58.820Z,81.59
2024-02-08T22:21:27.497Z,81.50
2024-02-08T22:24:56.262Z,81.53
2024-02-08T22:28:25.238Z,81.58
2024-02-08T22:31:54.600Z,81.64
2024-02-08T22:35:23.536Z,81.74
2024-02-08T22:38:52.440Z,81.80
2024-02-08T22:42:27.013Z,81.77
2024-02-08T22:45:55.967Z,81.74
2024-02-08T22:49:24.960Z,81.87
2024-02-08T22:52:54.035Z,81.96
2024-02-08T22:56:24.706Z,82.03
2024-02-08T22:59:53.802Z,82.11
2024-02-08T23:03:28.651Z,81.97
2024-02-08T23:07:00.494Z,82.08
2024-02-08T23:10:29.518Z,82.10
2024-02-08T23:13:58.601Z,82.22
2024-02-08T23:17:27.587Z,82.15
2024-02-08T23:20:56.812Z,82.32
2024-02-08T23:24:25.645Z,82.48
2024-02-08T23:27:54.684Z,82.65
2024-02-08T23:31:24.197Z,82.89
2024-02-08T23:34:52.909Z,83.01
2024-02-08T23:38:21.858Z,82.91
2024-02-08T23:41:51.055Z,82.74
2024-02-08T23:45:20.012Z,83.15
2024-02-08T23:48:52.746Z,83.24
2024-02-08T23:52:21.807Z,83.28
2024-02-08T23:55:50.635Z,83.34
2024-02-08T23:59:19.582Z,83.50
